sensor_id;sensor_type;location;lat;lon;timestamp;temperature;humidity
78461;SHT31;67755;51.986;5.696;2023-04-10T00:00:29;13.3;50.6
78461;SHT31;67755;51.986;5.696;2023-04-10T00:02:59;13.3;50.2
78461;SHT31;67755;51.986;5.696;2023-04-10T00:05:29;13.3;50.5
78461;SHT31;67755;51.986;5.696;2023-04-10T00:07:59;13.3;50.2
78461;SHT31;67755;51.986;5.696;2023-04-10T00:10:29;13.3;50.3
78461;SHT31;67755;51.986;5.696;2023-04-10T00:13:01;13.3;50.9
78461;SHT31;67755;51.986;5.696;2023-04-10T00:15:31;13.3;50.1
78461;SHT31;67755;51.986;5.696;2023-04-10T00:18:00;13.2;50.6
78461;SHT31;67755;51.986;5.696;2023-04-10T00:20:30;13.2;50.9
78461;SHT31;67755;51.986;5.696;2023-04-10T00:22:59;13.2;50.4
78461;SHT31;67755;51.986;5.696;2023-04-10T00:25:31;13.2;50.4
78461;SHT31;67755;51.986;5.696;2023-04-10T00:28:00;13.2;50.5
78461;SHT31;67755;51.986;5.696;2023-04-10T00:30:31;13.2;49.9
78461;SHT31;67755;51.986;5.696;2023-04-10T00:33:00;13.2;50.6
78461;SHT31;67755;51.986;5.696;2023-04-10T00:35:30;13.2;51.0
78461;SHT31;67755;51.986;5.696;2023-04-10T00:38:00;13.1;51.0
78461;SHT31;67755;51.986;5.696;2023-04-10T00:40:31;13.1;51.0
78461;SHT31;67755;51.986;5.696;2023-04-10T00:43:00;13.1;50.8
78461;SHT31;67755;51.986;5.696;2023-04-10T00:45:30;13.1;50.7
78461;SHT31;67755;51.986;5.696;2023-04-10T00:48:01;13.1;51.0
78461;SHT31;67755;51.986;5.696;2023-04-10T00:50:33;13.1;51.1
78461;SHT31;67755;51.986;5.696;2023-04-10T00:53:03;13.1;51.2
78461;SHT31;67755;51.986;5.696;2023-04-10T00:55:32;13.1;51.0
78461;SHT31;67755;51.986;5.696;2023-04-10T00:58:02;13.1;51.1
78461;SHT31;67755;51.986;5.696;2023-04-10T01:00:34;13.1;51.1
78461;SHT31;67755;51.986;5.696;2023-04-10T01:03:03;13.1;51.2
78461;SHT31;67755;51.986;5.696;2023-04-10T01:05:40;13.1;51.0
78461;SHT31;67755;51.986;5.696;2023-04-10T01:08:25;13.1;51.0
78461;SHT31;67755;51.986;5.696;2023-04-10T01:10:59;13.1;51.3
78461;SHT31;67755;51.986;5.696;2023-04-10T01:13:37;13.1;51.4
78461;SHT31;67755;51.986;5.696;2023-04-10T01:16:17;13.0;51.4
78461;SHT31;67755;51.986;5.696;2023-04-10T01:18:52;13.1;51.3
78461;SHT31;67755;51.986;5.696;2023-04-10T01:21:23;13.0;51.3
78461;SHT31;67755;51.986;5.696;2023-04-10T01:24:06;13.1;51.0
78461;SHT31;67755;51.986;5.696;2023-04-10T01:26:55;13.0;50.8
78461;SHT31;67755;51.986;5.696;2023-04-10T01:29:29;13.0;51.0
78461;SHT31;67755;51.986;5.696;2023-04-10T01:32:04;13.0;51.3
78461;SHT31;67755;51.986;5.696;2023-04-10T01:34:41;13.0;50.1
78461;SHT31;67755;51.986;5.696;2023-04-10T01:37:17;13.0;50.9
78461;SHT31;67755;51.986;5.696;2023-04-10T01:39:53;13.0;51.0
78461;SHT31;67755;51.986;5.696;2023-04-10T01:42:28;13.0;51.0
78461;SHT31;67755;51.986;5.696;2023-04-10T01:45:00;13.0;51.5
78461;SHT31;67755;51.986;5.696;2023-04-10T01:47:34;13.0;51.7
78461;SHT31;67755;51.986;5.696;2023-04-10T01:50:05;13.0;51.6
78461;SHT31;67755;51.986;5.696;2023-04-10T01:52:37;13.0;51.6
78461;SHT31;67755;51.986;5.696;2023-04-10T01:55:10;13.0;50.8
78461;SHT31;67755;51.986;5.696;2023-04-10T01:57:40;13.0;52.0
78461;SHT31;67755;51.986;5.696;2023-04-10T02:00:11;13.0;51.9
78461;SHT31;67755;51.986;5.696;2023-04-10T02:02:41;13.0;50.8
78461;SHT31;67755;51.986;5.696;2023-04-10T02:05:17;13.0;51.7
78461;SHT31;67755;51.986;5.696;2023-04-10T02:07:54;13.0;51.5
78461;SHT31;67755;51.986;5.696;2023-04-10T02:10:29;13.0;51.5
78461;SHT31;67755;51.986;5.696;2023-04-10T02:13:02;13.0;51.1
78461;SHT31;67755;51.986;5.696;2023-04-10T02:15:36;13.0;51.1
78461;SHT31;67755;51.986;5.696;2023-04-10T02:18:09;13.0;51.7
78461;SHT31;67755;51.986;5.696;2023-04-10T02:20:42;13.0;51.8
78461;SHT31;67755;51.986;5.696;2023-04-10T02:23:19;13.0;51.4
78461;SHT31;67755;51.986;5.696;2023-04-10T02:25:49;13.0;51.3
78461;SHT31;67755;51.986;5.696;2023-04-10T02:28:19;13.0;50.7
78461;SHT31;67755;51.986;5.696;2023-04-10T02:30:48;13.0;51.1
78461;SHT31;67755;51.986;5.696;2023-04-10T02:33:18;13.0;50.7
78461;SHT31;67755;51.986;5.696;2023-04-10T02:35:47;13.0;51.1
78461;SHT31;67755;51.986;5.696;2023-04-10T02:38:18;13.0;51.3
78461;SHT31;67755;51.986;5.696;2023-04-10T02:40:48;13.0;51.2
78461;SHT31;67755;51.986;5.696;2023-04-10T02:43:18;13.0;51.2
78461;SHT31;67755;51.986;5.696;2023-04-10T02:45:47;13.0;51.3
78461;SHT31;67755;51.986;5.696;2023-04-10T02:48:17;13.0;51.3
78461;SHT31;67755;51.986;5.696;2023-04-10T02:50:47;13.0;51.2
78461;SHT31;67755;51.986;5.696;2023-04-10T02:53:16;12.9;51.1
78461;SHT31;67755;51.986;5.696;2023-04-10T02:55:46;12.9;50.9
78461;SHT31;67755;51.986;5.696;2023-04-10T02:58:16;12.9;51.2
78461;SHT31;67755;51.986;5.696;2023-04-10T03:00:48;12.9;51.2
78461;SHT31;67755;51.986;5.696;2023-04-10T03:03:18;12.9;51.3
78461;SHT31;67755;51.986;5.696;2023-04-10T03:05:48;12.9;51.1
78461;SHT31;67755;51.986;5.696;2023-04-10T03:08:18;12.9;51.3
78461;SHT31;67755;51.986;5.696;2023-04-10T03:10:48;12.9;51.4
78461;SHT31;67755;51.986;5.696;2023-04-10T03:13:19;12.9;51.5
78461;SHT31;67755;51.986;5.696;2023-04-10T03:15:51;12.9;51.2
78461;SHT31;67755;51.986;5.696;2023-04-10T03:18:21;12.9;51.3
78461;SHT31;67755;51.986;5.696;2023-04-10T03:20:52;12.8;51.2
78461;SHT31;67755;51.986;5.696;2023-04-10T03:23:24;12.8;51.2
78461;SHT31;67755;51.986;5.696;2023-04-10T03:25:53;12.8;51.1
78461;SHT31;67755;51.986;5.696;2023-04-10T03:28:23;12.8;51.2
78461;SHT31;67755;51.986;5.696;2023-04-10T03:30:55;12.8;51.7
78461;SHT31;67755;51.986;5.696;2023-04-10T03:33:24;12.8;51.6
78461;SHT31;67755;51.986;5.696;2023-04-10T03:35:54;12.8;51.7
78461;SHT31;67755;51.986;5.696;2023-04-10T03:38:26;12.7;51.9
78461;SHT31;67755;51.986;5.696;2023-04-10T03:40:55;12.7;51.7
78461;SHT31;67755;51.986;5.696;2023-04-10T03:43:25;12.7;51.8
78461;SHT31;67755;51.986;5.696;2023-04-10T03:45:55;12.7;51.9
78461;SHT31;67755;51.986;5.696;2023-04-10T03:48:24;12.7;52.0
78461;SHT31;67755;51.986;5.696;2023-04-10T03:50:54;12.6;52.1
78461;SHT31;67755;51.986;5.696;2023-04-10T03:53:24;12.6;52.0
78461;SHT31;67755;51.986;5.696;2023-04-10T03:55:54;12.6;51.9
78461;SHT31;67755;51.986;5.696;2023-04-10T03:58:23;12.6;52.2
78461;SHT31;67755;51.986;5.696;2023-04-10T04:00:53;12.6;52.1
78461;SHT31;67755;51.986;5.696;2023-04-10T04:03:23;12.5;51.9
78461;SHT31;67755;51.986;5.696;2023-04-10T04:05:53;12.5;52.3
78461;SHT31;67755;51.986;5.696;2023-04-10T04:08:22;12.5;52.2
78461;SHT31;67755;51.986;5.696;2023-04-10T04:10:54;12.5;52.2
78461;SHT31;67755;51.986;5.696;2023-04-10T04:13:23;12.5;52.5
78461;SHT31;67755;51.986;5.696;2023-04-10T04:15:55;12.4;52.2
78461;SHT31;67755;51.986;5.696;2023-04-10T04:18:24;12.4;52.6
78461;SHT31;67755;51.986;5.696;2023-04-10T04:20:54;12.4;52.5
78461;SHT31;67755;51.986;5.696;2023-04-10T04:23:24;12.4;52.4
78461;SHT31;67755;51.986;5.696;2023-04-10T04:25:55;12.4;52.7
78461;SHT31;67755;51.986;5.696;2023-04-10T04:28:26;12.4;52.5
78461;SHT31;67755;51.986;5.696;2023-04-10T04:30:55;12.4;52.6
78461;SHT31;67755;51.986;5.696;2023-04-10T04:33:25;12.4;52.6
78461;SHT31;67755;51.986;5.696;2023-04-10T04:35:55;12.4;52.3
78461;SHT31;67755;51.986;5.696;2023-04-10T04:38:25;12.4;52.5
78461;SHT31;67755;51.986;5.696;2023-04-10T04:40:55;12.3;52.4
78461;SHT31;67755;51.986;5.696;2023-04-10T04:43:24;12.3;52.6
78461;SHT31;67755;51.986;5.696;2023-04-10T04:45:54;12.3;52.6
78461;SHT31;67755;51.986;5.696;2023-04-10T04:48:24;12.3;52.5
78461;SHT31;67755;51.986;5.696;2023-04-10T04:50:53;12.3;52.6
78461;SHT31;67755;51.986;5.696;2023-04-10T04:53:23;12.3;52.7
78461;SHT31;67755;51.986;5.696;2023-04-10T04:55:55;12.3;52.8
78461;SHT31;67755;51.986;5.696;2023-04-10T04:58:24;12.3;52.9
78461;SHT31;67755;51.986;5.696;2023-04-10T05:00:54;12.3;52.9
78461;SHT31;67755;51.986;5.696;2023-04-10T05:03:23;12.3;52.8
78461;SHT31;67755;51.986;5.696;2023-04-10T05:05:55;12.3;52.7
78461;SHT31;67755;51.986;5.696;2023-04-10T05:08:25;12.2;52.9
78461;SHT31;67755;51.986;5.696;2023-04-10T05:10:54;12.2;52.5
78461;SHT31;67755;51.986;5.696;2023-04-10T05:13:24;12.2;52.8
78461;SHT31;67755;51.986;5.696;2023-04-10T05:15:53;12.2;52.7
78461;SHT31;67755;51.986;5.696;2023-04-10T05:18:23;12.2;52.5
78461;SHT31;67755;51.986;5.696;2023-04-10T05:20:53;12.2;52.7
78461;SHT31;67755;51.986;5.696;2023-04-10T05:23:24;12.3;52.5
78461;SHT31;67755;51.986;5.696;2023-04-10T05:25:54;12.3;52.7
78461;SHT31;67755;51.986;5.696;2023-04-10T05:28:23;12.3;52.6
78461;SHT31;67755;51.986;5.696;2023-04-10T05:30:54;12.3;52.9
78461;SHT31;67755;51.986;5.696;2023-04-10T05:33:23;12.3;52.9
78461;SHT31;67755;51.986;5.696;2023-04-10T05:35:53;12.3;52.9
78461;SHT31;67755;51.986;5.696;2023-04-10T05:38:23;12.3;53.2
78461;SHT31;67755;51.986;5.696;2023-04-10T05:40:55;12.3;53.1
78461;SHT31;67755;51.986;5.696;2023-04-10T05:43:24;12.3;53.5
78461;SHT31;67755;51.986;5.696;2023-04-10T05:45:54;12.3;53.5
78461;SHT31;67755;51.986;5.696;2023-04-10T05:48:23;12.3;53.3
78461;SHT31;67755;51.986;5.696;2023-04-10T05:50:55;12.3;53.9
78461;SHT31;67755;51.986;5.696;2023-04-10T05:53:27;12.3;53.7
78461;SHT31;67755;51.986;5.696;2023-04-10T05:55:58;12.3;53.9
78461;SHT31;67755;51.986;5.696;2023-04-10T05:58:30;12.3;53.8
78461;SHT31;67755;51.986;5.696;2023-04-10T06:01:00;12.4;53.8
78461;SHT31;67755;51.986;5.696;2023-04-10T06:03:29;12.4;54.1
78461;SHT31;67755;51.986;5.696;2023-04-10T06:06:00;12.4;54.3
78461;SHT31;67755;51.986;5.696;2023-04-10T06:11:05;12.4;54.2
78461;SHT31;67755;51.986;5.696;2023-04-10T06:13:37;12.5;54.3
78461;SHT31;67755;51.986;5.696;2023-04-10T06:16:07;12.5;53.9
78461;SHT31;67755;51.986;5.696;2023-04-10T06:18:37;12.5;53.5
78461;SHT31;67755;51.986;5.696;2023-04-10T06:21:07;12.5;53.3
78461;SHT31;67755;51.986;5.696;2023-04-10T06:23:37;12.6;53.1
78461;SHT31;67755;51.986;5.696;2023-04-10T06:26:07;12.6;53.2
78461;SHT31;67755;51.986;5.696;2023-04-10T06:28:37;12.6;53.1
78461;SHT31;67755;51.986;5.696;2023-04-10T06:31:07;12.7;53.4
78461;SHT31;67755;51.986;5.696;2023-04-10T06:33:38;12.7;52.8
78461;SHT31;67755;51.986;5.696;2023-04-10T06:36:08;12.7;52.5
78461;SHT31;67755;51.986;5.696;2023-04-10T06:38:38;12.8;53.2
78461;SHT31;67755;51.986;5.696;2023-04-10T06:41:08;12.8;51.7
78461;SHT31;67755;51.986;5.696;2023-04-10T06:43:38;12.9;52.9
78461;SHT31;67755;51.986;5.696;2023-04-10T06:46:08;12.9;52.6
78461;SHT31;67755;51.986;5.696;2023-04-10T06:48:37;12.9;53.1
78461;SHT31;67755;51.986;5.696;2023-04-10T06:51:07;13.0;50.6
78461;SHT31;67755;51.986;5.696;2023-04-10T06:53:37;13.0;51.0
78461;SHT31;67755;51.986;5.696;2023-04-10T06:56:07;13.0;51.5
78461;SHT31;67755;51.986;5.696;2023-04-10T06:58:37;13.1;51.0
78461;SHT31;67755;51.986;5.696;2023-04-10T07:01:07;13.1;51.6
78461;SHT31;67755;51.986;5.696;2023-04-10T07:03:37;13.2;50.2
78461;SHT31;67755;51.986;5.696;2023-04-10T07:06:09;13.2;51.4
78461;SHT31;67755;51.986;5.696;2023-04-10T07:08:39;13.2;50.8
78461;SHT31;67755;51.986;5.696;2023-04-10T07:11:09;13.3;50.5
78461;SHT31;67755;51.986;5.696;2023-04-10T07:13:38;13.3;49.8
78461;SHT31;67755;51.986;5.696;2023-04-10T07:16:11;13.4;50.2
78461;SHT31;67755;51.986;5.696;2023-04-10T07:18:40;13.4;49.0
78461;SHT31;67755;51.986;5.696;2023-04-10T07:21:11;13.4;49.3
78461;SHT31;67755;51.986;5.696;2023-04-10T07:23:41;13.5;50.3
78461;SHT31;67755;51.986;5.696;2023-04-10T07:26:10;13.5;49.4
78461;SHT31;67755;51.986;5.696;2023-04-10T07:28:40;13.5;50.3
78461;SHT31;67755;51.986;5.696;2023-04-10T07:31:11;13.6;49.1
78461;SHT31;67755;51.986;5.696;2023-04-10T07:33:41;13.6;49.2
78461;SHT31;67755;51.986;5.696;2023-04-10T07:36:10;13.7;50.8
78461;SHT31;67755;51.986;5.696;2023-04-10T07:38:41;13.7;48.8
78461;SHT31;67755;51.986;5.696;2023-04-10T07:41:10;13.8;49.4
78461;SHT31;67755;51.986;5.696;2023-04-10T07:43:40;13.8;48.0
78461;SHT31;67755;51.986;5.696;2023-04-10T07:46:10;13.9;47.0
78461;SHT31;67755;51.986;5.696;2023-04-10T07:48:39;13.9;47.9
78461;SHT31;67755;51.986;5.696;2023-04-10T07:51:09;13.9;49.0
78461;SHT31;67755;51.986;5.696;2023-04-10T07:53:39;14.0;48.7
78461;SHT31;67755;51.986;5.696;2023-04-10T07:56:14;14.0;48.5
78461;SHT31;67755;51.986;5.696;2023-04-10T07:58:45;14.1;48.7
78461;SHT31;67755;51.986;5.696;2023-04-10T08:01:14;14.1;48.8
78461;SHT31;67755;51.986;5.696;2023-04-10T08:03:45;14.2;48.2
78461;SHT31;67755;51.986;5.696;2023-04-10T08:06:16;14.2;46.9
78461;SHT31;67755;51.986;5.696;2023-04-10T08:08:46;14.3;47.0
78461;SHT31;67755;51.986;5.696;2023-04-10T08:11:25;14.3;47.5
78461;SHT31;67755;51.986;5.696;2023-04-10T08:13:57;14.4;47.3
78461;SHT31;67755;51.986;5.696;2023-04-10T08:16:29;14.5;46.4
78461;SHT31;67755;51.986;5.696;2023-04-10T08:19:01;14.6;46.1
78461;SHT31;67755;51.986;5.696;2023-04-10T08:21:31;14.6;45.4
78461;SHT31;67755;51.986;5.696;2023-04-10T08:24:02;14.7;46.0
78461;SHT31;67755;51.986;5.696;2023-04-10T08:26:32;14.7;45.2
78461;SHT31;67755;51.986;5.696;2023-04-10T08:29:01;14.8;46.5
78461;SHT31;67755;51.986;5.696;2023-04-10T08:31:31;14.8;45.3
78461;SHT31;67755;51.986;5.696;2023-04-10T08:34:03;14.9;45.8
78461;SHT31;67755;51.986;5.696;2023-04-10T08:36:33;14.9;45.1
78461;SHT31;67755;51.986;5.696;2023-04-10T08:39:03;15.0;47.3
78461;SHT31;67755;51.986;5.696;2023-04-10T08:41:32;15.0;45.8
78461;SHT31;67755;51.986;5.696;2023-04-10T08:44:02;15.1;44.9
78461;SHT31;67755;51.986;5.696;2023-04-10T08:46:35;15.1;45.2
78461;SHT31;67755;51.986;5.696;2023-04-10T08:49:09;15.2;45.7
78461;SHT31;67755;51.986;5.696;2023-04-10T08:51:44;15.2;45.1
78461;SHT31;67755;51.986;5.696;2023-04-10T08:54:18;15.3;44.9
78461;SHT31;67755;51.986;5.696;2023-04-10T08:56:49;15.4;46.0
78461;SHT31;67755;51.986;5.696;2023-04-10T08:59:19;15.4;45.7
78461;SHT31;67755;51.986;5.696;2023-04-10T09:01:49;15.5;44.8
78461;SHT31;67755;51.986;5.696;2023-04-10T09:04:19;15.6;45.0
78461;SHT31;67755;51.986;5.696;2023-04-10T09:06:51;15.6;46.1
78461;SHT31;67755;51.986;5.696;2023-04-10T09:09:21;15.7;44.8
78461;SHT31;67755;51.986;5.696;2023-04-10T09:11:58;15.7;44.5
78461;SHT31;67755;51.986;5.696;2023-04-10T09:14:32;15.8;44.2
78461;SHT31;67755;51.986;5.696;2023-04-10T09:17:13;15.9;43.9
78461;SHT31;67755;51.986;5.696;2023-04-10T09:19:44;15.9;43.0
78461;SHT31;67755;51.986;5.696;2023-04-10T09:22:15;15.9;45.1
78461;SHT31;67755;51.986;5.696;2023-04-10T09:24:46;15.9;44.2
78461;SHT31;67755;51.986;5.696;2023-04-10T09:27:30;16.0;43.6
78461;SHT31;67755;51.986;5.696;2023-04-10T09:30:03;16.0;43.5
78461;SHT31;67755;51.986;5.696;2023-04-10T09:32:42;16.0;44.3
78461;SHT31;67755;51.986;5.696;2023-04-10T09:35:14;16.0;44.1
78461;SHT31;67755;51.986;5.696;2023-04-10T09:37:44;16.0;44.1
78461;SHT31;67755;51.986;5.696;2023-04-10T09:40:22;16.1;43.4
78461;SHT31;67755;51.986;5.696;2023-04-10T09:42:55;16.1;44.0
78461;SHT31;67755;51.986;5.696;2023-04-10T09:45:25;16.1;43.6
78461;SHT31;67755;51.986;5.696;2023-04-10T09:48:06;16.1;44.0
78461;SHT31;67755;51.986;5.696;2023-04-10T09:50:37;16.1;44.7
78461;SHT31;67755;51.986;5.696;2023-04-10T09:53:11;16.2;45.1
78461;SHT31;67755;51.986;5.696;2023-04-10T09:55:41;16.2;44.3
78461;SHT31;67755;51.986;5.696;2023-04-10T09:58:12;16.2;44.8
78461;SHT31;67755;51.986;5.696;2023-04-10T10:00:43;16.2;44.5
78461;SHT31;67755;51.986;5.696;2023-04-10T10:03:14;16.3;43.7
78461;SHT31;67755;51.986;5.696;2023-04-10T10:05:46;16.3;44.1
78461;SHT31;67755;51.986;5.696;2023-04-10T10:08:16;16.3;43.9
78461;SHT31;67755;51.986;5.696;2023-04-10T10:10:52;16.3;44.1
78461;SHT31;67755;51.986;5.696;2023-04-10T10:13:25;16.3;44.1
78461;SHT31;67755;51.986;5.696;2023-04-10T10:16:05;16.4;43.9
78461;SHT31;67755;51.986;5.696;2023-04-10T10:18:46;16.4;44.1
78461;SHT31;67755;51.986;5.696;2023-04-10T10:21:17;16.4;44.0
78461;SHT31;67755;51.986;5.696;2023-04-10T10:23:49;16.4;44.0
78461;SHT31;67755;51.986;5.696;2023-04-10T10:26:22;16.5;43.6
78461;SHT31;67755;51.986;5.696;2023-04-10T10:28:52;16.5;44.2
78461;SHT31;67755;51.986;5.696;2023-04-10T10:31:24;16.5;44.8
78461;SHT31;67755;51.986;5.696;2023-04-10T10:34:00;16.6;44.8
78461;SHT31;67755;51.986;5.696;2023-04-10T10:36:32;16.6;45.4
78461;SHT31;67755;51.986;5.696;2023-04-10T10:39:23;16.7;44.3
78461;SHT31;67755;51.986;5.696;2023-04-10T10:42:01;16.7;44.3
78461;SHT31;67755;51.986;5.696;2023-04-10T10:44:40;16.8;44.2
78461;SHT31;67755;51.986;5.696;2023-04-10T10:47:14;16.8;44.4
78461;SHT31;67755;51.986;5.696;2023-04-10T10:49:55;16.9;43.7
78461;SHT31;67755;51.986;5.696;2023-04-10T10:52:37;16.9;44.2
78461;SHT31;67755;51.986;5.696;2023-04-10T10:55:32;17.0;44.4
78461;SHT31;67755;51.986;5.696;2023-04-10T10:58:06;17.0;43.9
78461;SHT31;67755;51.986;5.696;2023-04-10T11:01:04;17.1;43.9
78461;SHT31;67755;51.986;5.696;2023-04-10T11:03:36;17.2;43.2
78461;SHT31;67755;51.986;5.696;2023-04-10T11:06:08;17.2;43.1
78461;SHT31;67755;51.986;5.696;2023-04-10T11:08:41;17.3;42.4
78461;SHT31;67755;51.986;5.696;2023-04-10T11:11:15;17.3;43.6
78461;SHT31;67755;51.986;5.696;2023-04-10T11:14:13;17.4;43.1
78461;SHT31;67755;51.986;5.696;2023-04-10T11:16:47;17.4;43.7
78461;SHT31;67755;51.986;5.696;2023-04-10T11:19:17;17.5;42.7
78461;SHT31;67755;51.986;5.696;2023-04-10T11:22:09;17.5;43.0
78461;SHT31;67755;51.986;5.696;2023-04-10T11:24:58;17.6;43.1
78461;SHT31;67755;51.986;5.696;2023-04-10T11:27:47;17.7;43.3
78461;SHT31;67755;51.986;5.696;2023-04-10T11:30:33;17.7;43.7
78461;SHT31;67755;51.986;5.696;2023-04-10T11:33:04;17.8;44.2
78461;SHT31;67755;51.986;5.696;2023-04-10T11:35:36;17.9;42.8
78461;SHT31;67755;51.986;5.696;2023-04-10T11:38:11;18.0;42.6
78461;SHT31;67755;51.986;5.696;2023-04-10T11:41:03;18.1;42.4
78461;SHT31;67755;51.986;5.696;2023-04-10T11:43:38;18.2;42.5
78461;SHT31;67755;51.986;5.696;2023-04-10T11:46:08;18.2;43.3
78461;SHT31;67755;51.986;5.696;2023-04-10T11:48:38;18.3;43.0
78461;SHT31;67755;51.986;5.696;2023-04-10T11:51:09;18.4;42.1
78461;SHT31;67755;51.986;5.696;2023-04-10T11:53:40;18.4;42.9
78461;SHT31;67755;51.986;5.696;2023-04-10T11:56:20;18.5;42.3
78461;SHT31;67755;51.986;5.696;2023-04-10T11:58:52;18.6;42.5
78461;SHT31;67755;51.986;5.696;2023-04-10T12:01:22;18.7;42.2
78461;SHT31;67755;51.986;5.696;2023-04-10T12:03:53;18.7;42.3
78461;SHT31;67755;51.986;5.696;2023-04-10T12:06:23;18.8;40.9
78461;SHT31;67755;51.986;5.696;2023-04-10T12:08:54;18.9;40.9
78461;SHT31;67755;51.986;5.696;2023-04-10T12:11:24;18.9;40.8
78461;SHT31;67755;51.986;5.696;2023-04-10T12:13:56;19.0;41.2
78461;SHT31;67755;51.986;5.696;2023-04-10T12:16:26;19.0;41.7
78461;SHT31;67755;51.986;5.696;2023-04-10T12:18:56;19.1;41.1
78461;SHT31;67755;51.986;5.696;2023-04-10T12:21:26;19.1;41.9
78461;SHT31;67755;51.986;5.696;2023-04-10T12:23:57;19.1;41.4
78461;SHT31;67755;51.986;5.696;2023-04-10T12:26:27;19.2;40.7
78461;SHT31;67755;51.986;5.696;2023-04-10T12:28:57;19.2;40.2
78461;SHT31;67755;51.986;5.696;2023-04-10T12:31:28;19.2;40.7
78461;SHT31;67755;51.986;5.696;2023-04-10T12:33:59;19.2;40.7
78461;SHT31;67755;51.986;5.696;2023-04-10T12:36:30;19.2;41.2
78461;SHT31;67755;51.986;5.696;2023-04-10T12:39:02;19.2;41.6
78461;SHT31;67755;51.986;5.696;2023-04-10T12:41:33;19.3;41.7
78461;SHT31;67755;51.986;5.696;2023-04-10T12:44:11;19.3;40.7
78461;SHT31;67755;51.986;5.696;2023-04-10T12:46:41;19.3;40.1
78461;SHT31;67755;51.986;5.696;2023-04-10T12:49:14;19.3;40.0
78461;SHT31;67755;51.986;5.696;2023-04-10T12:51:47;19.3;39.4
78461;SHT31;67755;51.986;5.696;2023-04-10T12:54:31;19.3;39.3
78461;SHT31;67755;51.986;5.696;2023-04-10T12:57:02;19.3;39.5
78461;SHT31;67755;51.986;5.696;2023-04-10T12:59:32;19.3;39.2
78461;SHT31;67755;51.986;5.696;2023-04-10T13:02:02;19.3;40.2
78461;SHT31;67755;51.986;5.696;2023-04-10T13:04:33;19.3;39.7
78461;SHT31;67755;51.986;5.696;2023-04-10T13:07:03;19.3;39.7
78461;SHT31;67755;51.986;5.696;2023-04-10T13:09:34;19.2;39.4
78461;SHT31;67755;51.986;5.696;2023-04-10T13:12:06;19.2;40.2
78461;SHT31;67755;51.986;5.696;2023-04-10T13:14:36;19.2;40.2
78461;SHT31;67755;51.986;5.696;2023-04-10T13:17:05;19.2;40.7
78461;SHT31;67755;51.986;5.696;2023-04-10T13:19:35;19.2;40.2
78461;SHT31;67755;51.986;5.696;2023-04-10T13:22:04;19.1;40.2
78461;SHT31;67755;51.986;5.696;2023-04-10T13:24:34;19.1;40.5
78461;SHT31;67755;51.986;5.696;2023-04-10T13:27:04;19.1;40.6
78461;SHT31;67755;51.986;5.696;2023-04-10T13:29:36;19.1;40.9
78461;SHT31;67755;51.986;5.696;2023-04-10T13:32:08;19.1;40.8
78461;SHT31;67755;51.986;5.696;2023-04-10T13:34:40;19.0;40.5
78461;SHT31;67755;51.986;5.696;2023-04-10T13:37:11;19.0;40.8
78461;SHT31;67755;51.986;5.696;2023-04-10T13:39:41;19.0;40.5
78461;SHT31;67755;51.986;5.696;2023-04-10T13:42:13;19.0;40.8
78461;SHT31;67755;51.986;5.696;2023-04-10T13:44:43;19.0;41.1
78461;SHT31;67755;51.986;5.696;2023-04-10T13:47:13;19.0;42.4
78461;SHT31;67755;51.986;5.696;2023-04-10T13:49:42;19.0;41.3
78461;SHT31;67755;51.986;5.696;2023-04-10T13:52:12;18.9;40.3
78461;SHT31;67755;51.986;5.696;2023-04-10T13:54:42;18.9;40.5
78461;SHT31;67755;51.986;5.696;2023-04-10T13:57:11;18.9;41.2
78461;SHT31;67755;51.986;5.696;2023-04-10T13:59:41;18.9;40.6
78461;SHT31;67755;51.986;5.696;2023-04-10T14:02:10;18.9;41.6
78461;SHT31;67755;51.986;5.696;2023-04-10T14:04:40;18.9;42.4
78461;SHT31;67755;51.986;5.696;2023-04-10T14:07:12;18.9;41.3
78461;SHT31;67755;51.986;5.696;2023-04-10T14:09:42;18.9;40.6
78461;SHT31;67755;51.986;5.696;2023-04-10T14:12:12;18.9;41.5
78461;SHT31;67755;51.986;5.696;2023-04-10T14:14:45;18.9;42.9
78461;SHT31;67755;51.986;5.696;2023-04-10T14:17:15;18.9;42.7
78461;SHT31;67755;51.986;5.696;2023-04-10T14:19:49;18.9;42.3
78461;SHT31;67755;51.986;5.696;2023-04-10T14:22:20;18.9;43.4
78461;SHT31;67755;51.986;5.696;2023-04-10T14:24:52;18.9;41.2
78461;SHT31;67755;51.986;5.696;2023-04-10T14:27:26;18.9;42.2
78461;SHT31;67755;51.986;5.696;2023-04-10T14:29:55;18.9;41.3
78461;SHT31;67755;51.986;5.696;2023-04-10T14:32:27;18.9;41.0
78461;SHT31;67755;51.986;5.696;2023-04-10T14:34:56;19.0;41.6
78461;SHT31;67755;51.986;5.696;2023-04-10T14:37:26;19.0;42.1
78461;SHT31;67755;51.986;5.696;2023-04-10T14:39:56;19.0;41.9
78461;SHT31;67755;51.986;5.696;2023-04-10T14:42:25;19.0;44.4
78461;SHT31;67755;51.986;5.696;2023-04-10T14:44:57;19.0;44.8
78461;SHT31;67755;51.986;5.696;2023-04-10T14:47:27;19.0;46.4
78461;SHT31;67755;51.986;5.696;2023-04-10T14:49:57;19.0;46.4
78461;SHT31;67755;51.986;5.696;2023-04-10T14:52:26;19.0;46.9
78461;SHT31;67755;51.986;5.696;2023-04-10T14:54:56;18.9;48.1
78461;SHT31;67755;51.986;5.696;2023-04-10T14:57:25;18.9;49.3
78461;SHT31;67755;51.986;5.696;2023-04-10T14:59:56;18.8;50.0
78461;SHT31;67755;51.986;5.696;2023-04-10T15:02:27;18.7;49.2
78461;SHT31;67755;51.986;5.696;2023-04-10T15:04:57;18.6;49.4
78461;SHT31;67755;51.986;5.696;2023-04-10T15:07:27;18.5;49.7
78461;SHT31;67755;51.986;5.696;2023-04-10T15:09:57;18.4;51.8
78461;SHT31;67755;51.986;5.696;2023-04-10T15:12:27;18.3;51.7
78461;SHT31;67755;51.986;5.696;2023-04-10T15:14:59;18.2;51.6
78461;SHT31;67755;51.986;5.696;2023-04-10T15:17:28;18.1;51.8
78461;SHT31;67755;51.986;5.696;2023-04-10T15:19:58;18.0;53.9
78461;SHT31;67755;51.986;5.696;2023-04-10T15:22:33;18.0;52.0
78461;SHT31;67755;51.986;5.696;2023-04-10T15:25:04;17.9;52.9
78461;SHT31;67755;51.986;5.696;2023-04-10T15:27:36;17.8;52.8
78461;SHT31;67755;51.986;5.696;2023-04-10T15:30:06;17.7;54.5
78461;SHT31;67755;51.986;5.696;2023-04-10T15:32:37;17.7;54.6
78461;SHT31;67755;51.986;5.696;2023-04-10T15:35:07;17.6;55.7
78461;SHT31;67755;51.986;5.696;2023-04-10T15:37:40;17.6;54.0
78461;SHT31;67755;51.986;5.696;2023-04-10T15:40:10;17.5;55.7
78461;SHT31;67755;51.986;5.696;2023-04-10T15:42:42;17.5;55.8
78461;SHT31;67755;51.986;5.696;2023-04-10T15:45:12;17.4;56.5
78461;SHT31;67755;51.986;5.696;2023-04-10T15:47:44;17.4;57.0
78461;SHT31;67755;51.986;5.696;2023-04-10T15:50:17;17.3;55.0
78461;SHT31;67755;51.986;5.696;2023-04-10T15:52:47;17.3;57.3
78461;SHT31;67755;51.986;5.696;2023-04-10T15:55:17;17.2;56.3
78461;SHT31;67755;51.986;5.696;2023-04-10T15:57:46;17.2;56.9
78461;SHT31;67755;51.986;5.696;2023-04-10T16:00:16;17.2;56.0
78461;SHT31;67755;51.986;5.696;2023-04-10T16:02:49;17.1;56.0
78461;SHT31;67755;51.986;5.696;2023-04-10T16:05:18;17.1;57.6
78461;SHT31;67755;51.986;5.696;2023-04-10T16:07:48;17.1;57.6
78461;SHT31;67755;51.986;5.696;2023-04-10T16:10:18;17.0;57.0
78461;SHT31;67755;51.986;5.696;2023-04-10T16:12:47;17.0;57.9
78461;SHT31;67755;51.986;5.696;2023-04-10T16:15:17;17.0;57.5
78461;SHT31;67755;51.986;5.696;2023-04-10T16:17:47;17.0;57.7
78461;SHT31;67755;51.986;5.696;2023-04-10T16:20:17;16.9;57.7
78461;SHT31;67755;51.986;5.696;2023-04-10T16:22:46;16.9;58.0
78461;SHT31;67755;51.986;5.696;2023-04-10T16:25:16;16.9;58.5
78461;SHT31;67755;51.986;5.696;2023-04-10T16:27:46;16.9;59.0
78461;SHT31;67755;51.986;5.696;2023-04-10T16:30:15;16.9;58.0
78461;SHT31;67755;51.986;5.696;2023-04-10T16:32:45;16.9;58.3